createdAt,value
2019-03-18T00:06:10.497Z,6.50
2019-03-18T00:16:15.073Z,6.30
2019-03-18T00:26:19.933Z,6.30
2019-03-18T00:36:24.479Z,7.10
2019-03-18T00:46:29.047Z,7.50
2019-03-18T00:56:33.491Z,7.50
2019-03-18T01:06:37.933Z,7.30
2019-03-18T01:16:42.439Z,6.80
2019-03-18T01:26:46.993Z,6.30
2019-03-18T01:36:51.674Z,6.80
2019-03-18T01:46:57.354Z,6.30
2019-03-18T01:57:01.843Z,5.70
2019-03-18T02:07:06.322Z,5.90
2019-03-18T02:17:10.834Z,6.00
2019-03-18T02:27:16.514Z,6.30
2019-03-18T02:37:21.078Z,6.00
2019-03-18T02:47:25.509Z,6.70
2019-03-18T02:57:29.969Z,6.20
2019-03-18T03:07:34.484Z,6.30
2019-03-18T03:17:39.035Z,6.20
2019-03-18T03:27:43.528Z,6.70
2019-03-18T03:37:48.076Z,6.80
2019-03-18T03:47:52.548Z,6.90
2019-03-18T03:57:56.981Z,6.90
2019-03-18T04:08:01.555Z,6.90
2019-03-18T04:18:06.120Z,6.90
2019-03-18T04:28:10.588Z,6.80
2019-03-18T04:38:15.082Z,6.80
2019-03-18T04:48:19.567Z,6.70
2019-03-18T04:58:24.034Z,6.70
2019-03-18T05:08:28.864Z,6.70
2019-03-18T05:18:33.475Z,6.60
2019-03-18T05:28:38.033Z,6.60
2019-03-18T05:38:42.665Z,6.60
2019-03-18T05:48:47.132Z,6.60
2019-03-18T05:58:51.620Z,6.70
2019-03-18T06:08:56.200Z,6.70
2019-03-18T06:19:00.732Z,7.00
2019-03-18T06:29:05.194Z,7.20
2019-03-18T06:39:09.670Z,7.50
2019-03-18T06:49:14.218Z,7.70
2019-03-18T06:59:19.077Z,8.10
2019-03-18T07:09:23.512Z,8.40
2019-03-18T07:19:28.024Z,8.50
2019-03-18T07:29:32.468Z,8.50
2019-03-18T07:39:36.954Z,8.80
2019-03-18T07:49:41.503Z,9.00
2019-03-18T07:59:45.967Z,9.20
2019-03-18T08:09:50.419Z,9.20
2019-03-18T08:19:56.187Z,9.40
2019-03-18T08:30:00.623Z,9.60
2019-03-18T08:40:06.503Z,9.30
2019-03-18T08:50:12.439Z,9.00
2019-03-18T09:00:18.150Z,8.80
2019-03-18T09:10:22.767Z,8.90
2019-03-18T09:20:27.432Z,9.40
2019-03-18T09:30:31.938Z,10.10
2019-03-18T09:40:36.417Z,10.20
2019-03-18T09:50:41.033Z,10.70
2019-03-18T10:00:45.533Z,10.30
2019-03-18T10:10:50.108Z,10.10
2019-03-18T10:20:54.598Z,9.80
2019-03-18T10:30:59.148Z,10.00
2019-03-18T10:41:03.621Z,10.40
2019-03-18T10:51:08.093Z,10.20
2019-03-18T11:01:12.571Z,10.70
2019-03-18T11:11:17.089Z,11.50
2019-03-18T11:21:21.658Z,11.20
2019-03-18T11:31:26.154Z,10.90
2019-03-18T11:41:30.719Z,11.00
2019-03-18T11:51:35.299Z,11.30
2019-03-18T12:01:39.788Z,10.40
2019-03-18T12:11:44.290Z,10.80
2019-03-18T12:21:48.772Z,11.40
2019-03-18T12:31:53.266Z,11.20
2019-03-18T12:41:57.763Z,11.60
2019-03-18T12:52:02.248Z,10.80
2019-03-18T13:02:22.565Z,11.50
2019-03-18T13:12:27.074Z,11.40
2019-03-18T13:22:33.023Z,11.60
2019-03-18T13:32:38.634Z,12.00
2019-03-18T13:42:43.174Z,11.20
2019-03-18T13:52:47.766Z,11.90
2019-03-18T14:02:52.375Z,11.80
2019-03-18T14:12:56.974Z,11.10
2019-03-18T14:23:01.437Z,11.10
2019-03-18T14:33:05.925Z,11.30
2019-03-18T14:43:10.411Z,11.10
2019-03-18T14:53:14.866Z,11.00
2019-03-18T15:03:19.414Z,10.50
2019-03-18T15:13:30.912Z,10.20
2019-03-18T15:23:30.499Z,10.20
2019-03-18T15:33:35.264Z,9.60
2019-03-18T15:43:39.955Z,9.50
2019-03-18T15:53:44.820Z,9.30
2019-03-18T16:04:00.073Z,9.50
2019-03-18T16:14:05.379Z,9.30
2019-03-18T16:24:10.158Z,9.10
2019-03-18T16:34:14.983Z,8.80
2019-03-18T16:44:19.835Z,9.00
2019-03-18T16:54:24.697Z,8.80
2019-03-18T17:04:29.651Z,8.80
2019-03-18T17:14:39.959Z,8.80
2019-03-18T17:24:44.995Z,8.40
2019-03-18T17:34:50.936Z,8.10
2019-03-18T17:44:55.759Z,8.10
2019-03-18T17:55:00.602Z,8.00
2019-03-18T18:05:06.275Z,7.80
2019-03-18T18:15:29.335Z,7.90
2019-03-18T18:25:34.031Z,7.80
2019-03-18T18:35:40.172Z,7.70
2019-03-18T18:45:48.678Z,7.30
2019-03-18T18:55:55.874Z,6.70
2019-03-18T19:06:51.815Z,7.90
2019-03-18T19:16:57.958Z,5.70
2019-03-18T19:37:29.800Z,5.10
2019-03-18T19:58:12.723Z,5.00
2019-03-18T20:18:24.399Z,4.70
2019-03-18T20:28:30.622Z,4.50
2019-03-18T20:38:46.395Z,4.50
2019-03-18T20:48:52.453Z,4.40
2019-03-18T20:58:58.438Z,4.40
2019-03-18T21:09:06.166Z,4.10
2019-03-18T21:19:12.756Z,3.70
2019-03-18T21:29:18.765Z,3.60
2019-03-18T21:39:25.954Z,3.80
2019-03-18T21:49:31.754Z,3.40
2019-03-18T21:59:37.361Z,3.40
2019-03-18T22:09:42.861Z,3.30
2019-03-18T22:19:48.385Z,3.40
2019-03-18T22:29:53.868Z,3.40
2019-03-18T22:39:59.355Z,3.20
2019-03-18T22:50:07.277Z,3.00
2019-03-18T23:00:22.034Z,3.00
2019-03-18T23:10:29.114Z,2.90
2019-03-18T23:20:34.752Z,2.70
2019-03-18T23:30:40.331Z,2.60
2019-03-18T23:40:45.839Z,2.70
2019-03-18T23:50:51.475Z,2.70
